Foula, United Kingdom
Current Conditions -  °F | °C
As of 12:20 AM on Saturday 29 Nov 2014 (Local Time) from EGPB Reporting Station
Broken Clouds Broken Clouds  
Wind Chill: 38°   Ceiling: 800
Heat Index: 46°   Visibility: 4mi
Dew Point: 43°   Wind: 26mph
Humidity: 87%   Direction: 140°SE
Pressure: 30.03"   Gusts: NA
Location:  60.12°N, 2.07°W
Report Text: EGPB 290020Z AUTO 14023KT 7000 FEW006/// BKN008/// 08/06 Q1017
Loading
Personal Weather Stations






























Interactive Weather Map New forecast layout! Learn more

10-Day Weather Forecast

Advertisements
Track Severe Weather on mobile